Climatempo

Climatempo Meteorologia

Obter
publicidade

Fumaça encobre Manaus

01/10/2015 às 12:22
por Josélia Pegorim

Manaus, a capital do Amazonas, entrou em outubro encoberta por uma densa camada de fumaça. A visibilidade ficou prejudicada no aeroporto internacional Eduardo Gomes por várias horas na madrugada e no começo da manhã. No pior momento, o alcance visual a olho nu na pista baixou para apenas 800 metros, por volta das 7h35, horário local, 8h35 em Brasília.

 

 

 

A fumaça veio de uma grande concentração de focos de fogo que estavam ao sul de Manaus. Os ventos de sudoeste e sul predominaram na madrugada e no começo da manhã transportando a fumaça para a Manaus. Por volta das 9 horas (10 horas em Brasília) o vento mudou a direção leste e a fumaça saiu da região do aeroporto.

A imagem do satélite meteorológico Terra/MODIS, operado pela NASA mostra os focos de fogo ao sul de Manaus.

 

 

 

A sequência de informações meteorológicas horárias emitidas pelo aeroporto de Manaus mostra a situação. A sigla FU é a abreviatura de fumaça. O número imediatamente à esquerda é a visibilidade

5h: METAR SBEG 010900Z 00000KT (00000KMH) 9999 4000SE NSC 25/23 Q1008

 

6h: METAR SBEG 011000Z 00000KT (00000KMH) 4000 FU NSC 25/22 Q1009

 

6h35: SPECI SBEG 011035Z 24001KT (24002KMH) 2000 FU NSC 25/23 Q1009

 

7h: METAR SBEG 011100Z 00000KT (00000KMH) 1500 FU NSC 27/23 Q1010

 

7h35: SPECI SBEG 011135Z 21003KT (21006KMH) 0800 FU NSC 29/24 Q1010

 

8h: METAR SBEG 011200Z 19003KT (19006KMH) 1000 FU NSC 30/24 Q1010

 

8h25: SPECI SBEG 011225Z 19002KT (19004KMH) 4000 1800W FU NSC 31/23 Q1010

 

9h: METAR SBEG 011300Z 09006KT (09011KMH) CAVOK 33/20 Q1010

 

Pelo levantamento do Instituto de Pesquisas Espaciais, na manhã de 1de outubro de 2015, o Amazonas era o oitavo no ranking de estados com maior quantidade de focos de queimada nas últimas 48 horas. O Amazonas acumulou 60 focos neste período. A lista era liderada pelo Pará que teve 471 focos nas últimas 48 horas.

 

Pancadas de chuva

Todo o Amazonas poderá ter pancadas de chuva nos próximos dias, a chuva deve ocorrer com maior frequência nas áreas a oeste e sul do Estado. Manaus devem ter poucas pancadas de chuva.